sensor_id;sensor_type;location;lat;lon;timestamp;P1;durP1;ratioP1;P2;durP2;ratioP2
15833;SDS011;8017;50.812;4.934;2023-05-16T00:00:07;18.80;;;4.20;;
15833;SDS011;8017;50.812;4.934;2023-05-16T00:03:09;23.50;;;4.00;;
15833;SDS011;8017;50.812;4.934;2023-05-16T00:06:11;14.90;;;3.77;;
15833;SDS011;8017;50.812;4.934;2023-05-16T00:09:15;13.77;;;3.53;;
15833;SDS011;8017;50.812;4.934;2023-05-16T00:12:17;18.67;;;4.00;;
15833;SDS011;8017;50.812;4.934;2023-05-16T00:15:21;18.10;;;4.03;;
15833;SDS011;8017;50.812;4.934;2023-05-16T00:18:24;21.00;;;4.10;;
15833;SDS011;8017;50.812;4.934;2023-05-16T00:21:26;19.63;;;4.20;;
15833;SDS011;8017;50.812;4.934;2023-05-16T00:24:29;17.60;;;3.40;;
15833;SDS011;8017;50.812;4.934;2023-05-16T00:27:32;17.17;;;4.20;;
15833;SDS011;8017;50.812;4.934;2023-05-16T00:30:35;16.83;;;3.53;;
15833;SDS011;8017;50.812;4.934;2023-05-16T00:33:36;16.87;;;3.80;;
15833;SDS011;8017;50.812;4.934;2023-05-16T00:36:38;15.00;;;4.07;;
15833;SDS011;8017;50.812;4.934;2023-05-16T00:39:42;18.13;;;4.47;;
15833;SDS011;8017;50.812;4.934;2023-05-16T00:42:43;20.30;;;4.10;;
15833;SDS011;8017;50.812;4.934;2023-05-16T00:45:45;14.60;;;3.50;;
15833;SDS011;8017;50.812;4.934;2023-05-16T00:48:47;19.17;;;3.67;;
15833;SDS011;8017;50.812;4.934;2023-05-16T00:51:49;15.40;;;3.97;;
15833;SDS011;8017;50.812;4.934;2023-05-16T00:54:53;19.27;;;3.77;;
15833;SDS011;8017;50.812;4.934;2023-05-16T00:57:55;14.93;;;4.10;;
15833;SDS011;8017;50.812;4.934;2023-05-16T01:00:59;17.43;;;4.17;;
15833;SDS011;8017;50.812;4.934;2023-05-16T01:04:03;16.10;;;3.60;;
15833;SDS011;8017;50.812;4.934;2023-05-16T01:07:05;12.63;;;3.37;;
15833;SDS011;8017;50.812;4.934;2023-05-16T01:10:09;14.93;;;3.43;;
15833;SDS011;8017;50.812;4.934;2023-05-16T01:13:12;19.97;;;4.10;;
15833;SDS011;8017;50.812;4.934;2023-05-16T01:16:22;23.90;;;4.27;;
15833;SDS011;8017;50.812;4.934;2023-05-16T01:19:34;18.73;;;3.93;;
15833;SDS011;8017;50.812;4.934;2023-05-16T01:22:52;19.43;;;3.77;;
15833;SDS011;8017;50.812;4.934;2023-05-16T01:26:15;18.80;;;4.50;;
15833;SDS011;8017;50.812;4.934;2023-05-16T01:29:20;14.93;;;4.17;;
15833;SDS011;8017;50.812;4.934;2023-05-16T01:32:22;14.10;;;3.87;;
15833;SDS011;8017;50.812;4.934;2023-05-16T01:35:24;13.27;;;3.70;;
15833;SDS011;8017;50.812;4.934;2023-05-16T01:38:29;17.63;;;3.70;;
15833;SDS011;8017;50.812;4.934;2023-05-16T01:41:40;23.33;;;4.17;;
15833;SDS011;8017;50.812;4.934;2023-05-16T01:44:49;17.90;;;3.80;;
15833;SDS011;8017;50.812;4.934;2023-05-16T01:47:57;13.83;;;4.00;;
15833;SDS011;8017;50.812;4.934;2023-05-16T01:51:05;17.13;;;3.47;;
15833;SDS011;8017;50.812;4.934;2023-05-16T01:54:09;13.87;;;4.20;;
15833;SDS011;8017;50.812;4.934;2023-05-16T01:57:14;14.47;;;3.77;;
15833;SDS011;8017;50.812;4.934;2023-05-16T02:00:17;15.93;;;3.63;;
15833;SDS011;8017;50.812;4.934;2023-05-16T02:03:20;13.10;;;3.27;;
15833;SDS011;8017;50.812;4.934;2023-05-16T02:06:22;15.60;;;3.40;;
15833;SDS011;8017;50.812;4.934;2023-05-16T02:09:24;16.53;;;4.00;;
15833;SDS011;8017;50.812;4.934;2023-05-16T02:12:28;21.33;;;4.30;;
15833;SDS011;8017;50.812;4.934;2023-05-16T02:15:30;20.47;;;4.20;;
15833;SDS011;8017;50.812;4.934;2023-05-16T02:18:31;11.03;;;3.43;;
15833;SDS011;8017;50.812;4.934;2023-05-16T02:21:34;18.37;;;4.87;;
15833;SDS011;8017;50.812;4.934;2023-05-16T02:24:35;14.00;;;3.20;;
15833;SDS011;8017;50.812;4.934;2023-05-16T02:27:39;18.87;;;3.77;;
15833;SDS011;8017;50.812;4.934;2023-05-16T02:30:42;16.10;;;2.80;;
15833;SDS011;8017;50.812;4.934;2023-05-16T02:33:43;19.70;;;4.37;;
15833;SDS011;8017;50.812;4.934;2023-05-16T02:36:46;14.70;;;3.93;;
15833;SDS011;8017;50.812;4.934;2023-05-16T02:39:47;11.70;;;3.30;;
15833;SDS011;8017;50.812;4.934;2023-05-16T02:42:51;21.07;;;4.70;;
15833;SDS011;8017;50.812;4.934;2023-05-16T02:45:53;18.73;;;3.93;;
15833;SDS011;8017;50.812;4.934;2023-05-16T02:48:55;16.27;;;3.43;;
15833;SDS011;8017;50.812;4.934;2023-05-16T02:51:57;16.60;;;3.63;;
15833;SDS011;8017;50.812;4.934;2023-05-16T02:54:59;14.30;;;3.73;;
15833;SDS011;8017;50.812;4.934;2023-05-16T02:58:02;15.77;;;3.50;;
15833;SDS011;8017;50.812;4.934;2023-05-16T03:01:04;15.40;;;4.03;;
15833;SDS011;8017;50.812;4.934;2023-05-16T03:04:06;14.80;;;3.27;;
15833;SDS011;8017;50.812;4.934;2023-05-16T03:07:08;13.00;;;3.10;;
15833;SDS011;8017;50.812;4.934;2023-05-16T03:10:10;17.17;;;3.33;;
15833;SDS011;8017;50.812;4.934;2023-05-16T03:13:13;18.63;;;3.63;;
15833;SDS011;8017;50.812;4.934;2023-05-16T03:16:15;18.17;;;3.37;;
15833;SDS011;8017;50.812;4.934;2023-05-16T03:19:17;14.37;;;3.47;;
15833;SDS011;8017;50.812;4.934;2023-05-16T03:22:19;15.23;;;3.27;;
15833;SDS011;8017;50.812;4.934;2023-05-16T03:25:21;14.77;;;3.30;;
15833;SDS011;8017;50.812;4.934;2023-05-16T03:28:26;18.67;;;4.10;;
15833;SDS011;8017;50.812;4.934;2023-05-16T03:31:28;15.93;;;3.83;;
15833;SDS011;8017;50.812;4.934;2023-05-16T03:34:31;15.27;;;3.13;;
15833;SDS011;8017;50.812;4.934;2023-05-16T03:37:33;15.87;;;3.97;;
15833;SDS011;8017;50.812;4.934;2023-05-16T03:40:35;14.23;;;3.40;;
15833;SDS011;8017;50.812;4.934;2023-05-16T03:43:38;15.43;;;3.63;;
15833;SDS011;8017;50.812;4.934;2023-05-16T03:46:40;16.20;;;3.10;;
15833;SDS011;8017;50.812;4.934;2023-05-16T03:49:42;16.83;;;3.80;;
15833;SDS011;8017;50.812;4.934;2023-05-16T03:52:44;13.07;;;3.50;;
15833;SDS011;8017;50.812;4.934;2023-05-16T03:55:46;21.17;;;4.33;;
15833;SDS011;8017;50.812;4.934;2023-05-16T03:58:49;12.03;;;3.23;;
15833;SDS011;8017;50.812;4.934;2023-05-16T04:01:51;14.07;;;3.53;;
15833;SDS011;8017;50.812;4.934;2023-05-16T04:04:53;11.30;;;3.50;;
15833;SDS011;8017;50.812;4.934;2023-05-16T04:07:55;16.37;;;4.53;;
15833;SDS011;8017;50.812;4.934;2023-05-16T04:10:57;18.57;;;4.93;;
15833;SDS011;8017;50.812;4.934;2023-05-16T04:14:00;17.80;;;5.03;;
15833;SDS011;8017;50.812;4.934;2023-05-16T04:17:02;18.33;;;3.83;;
15833;SDS011;8017;50.812;4.934;2023-05-16T04:20:05;15.80;;;3.80;;
15833;SDS011;8017;50.812;4.934;2023-05-16T04:23:07;22.23;;;4.13;;
15833;SDS011;8017;50.812;4.934;2023-05-16T04:26:11;9.73;;;3.33;;
15833;SDS011;8017;50.812;4.934;2023-05-16T04:29:15;15.87;;;3.43;;
15833;SDS011;8017;50.812;4.934;2023-05-16T04:32:16;22.70;;;3.90;;
15833;SDS011;8017;50.812;4.934;2023-05-16T04:35:18;16.13;;;3.70;;
15833;SDS011;8017;50.812;4.934;2023-05-16T04:38:21;15.07;;;3.60;;
15833;SDS011;8017;50.812;4.934;2023-05-16T04:41:23;15.63;;;3.40;;
15833;SDS011;8017;50.812;4.934;2023-05-16T04:44:26;11.63;;;3.10;;
15833;SDS011;8017;50.812;4.934;2023-05-16T04:47:28;17.90;;;3.20;;
15833;SDS011;8017;50.812;4.934;2023-05-16T04:50:30;12.77;;;3.50;;
15833;SDS011;8017;50.812;4.934;2023-05-16T04:53:32;16.33;;;3.83;;
15833;SDS011;8017;50.812;4.934;2023-05-16T04:56:34;9.83;;;2.70;;
15833;SDS011;8017;50.812;4.934;2023-05-16T04:59:38;18.77;;;4.47;;
15833;SDS011;8017;50.812;4.934;2023-05-16T05:02:39;11.57;;;3.53;;
15833;SDS011;8017;50.812;4.934;2023-05-16T05:05:42;14.50;;;3.10;;
15833;SDS011;8017;50.812;4.934;2023-05-16T05:08:45;16.97;;;3.40;;
15833;SDS011;8017;50.812;4.934;2023-05-16T05:11:47;16.37;;;4.00;;
15833;SDS011;8017;50.812;4.934;2023-05-16T05:14:53;18.03;;;3.53;;
15833;SDS011;8017;50.812;4.934;2023-05-16T05:17:55;15.43;;;3.20;;
15833;SDS011;8017;50.812;4.934;2023-05-16T05:20:57;9.27;;;3.23;;
15833;SDS011;8017;50.812;4.934;2023-05-16T05:23:58;13.90;;;3.70;;
15833;SDS011;8017;50.812;4.934;2023-05-16T05:27:00;11.10;;;2.50;;
15833;SDS011;8017;50.812;4.934;2023-05-16T05:30:04;13.30;;;3.10;;
15833;SDS011;8017;50.812;4.934;2023-05-16T05:33:07;12.97;;;3.43;;
15833;SDS011;8017;50.812;4.934;2023-05-16T05:36:11;11.87;;;3.73;;
15833;SDS011;8017;50.812;4.934;2023-05-16T05:39:13;9.07;;;3.07;;
15833;SDS011;8017;50.812;4.934;2023-05-16T05:42:15;12.63;;;3.90;;
15833;SDS011;8017;50.812;4.934;2023-05-16T05:45:18;11.77;;;3.27;;
15833;SDS011;8017;50.812;4.934;2023-05-16T05:48:20;13.30;;;4.17;;
15833;SDS011;8017;50.812;4.934;2023-05-16T05:51:22;10.53;;;3.47;;
15833;SDS011;8017;50.812;4.934;2023-05-16T05:54:24;12.60;;;3.23;;
15833;SDS011;8017;50.812;4.934;2023-05-16T05:57:26;13.07;;;3.50;;
15833;SDS011;8017;50.812;4.934;2023-05-16T06:00:30;16.27;;;3.77;;
15833;SDS011;8017;50.812;4.934;2023-05-16T06:03:33;13.90;;;3.10;;
15833;SDS011;8017;50.812;4.934;2023-05-16T06:06:35;16.87;;;3.63;;
15833;SDS011;8017;50.812;4.934;2023-05-16T06:09:39;9.63;;;2.63;;
15833;SDS011;8017;50.812;4.934;2023-05-16T06:12:41;16.07;;;3.23;;
15833;SDS011;8017;50.812;4.934;2023-05-16T06:15:50;12.33;;;2.93;;
15833;SDS011;8017;50.812;4.934;2023-05-16T06:18:52;15.90;;;3.00;;
15833;SDS011;8017;50.812;4.934;2023-05-16T06:21:54;15.63;;;3.00;;
15833;SDS011;8017;50.812;4.934;2023-05-16T06:24:55;15.73;;;2.90;;
15833;SDS011;8017;50.812;4.934;2023-05-16T06:27:57;12.00;;;2.63;;
15833;SDS011;8017;50.812;4.934;2023-05-16T06:31:01;12.73;;;2.43;;
15833;SDS011;8017;50.812;4.934;2023-05-16T06:34:03;13.40;;;2.50;;
15833;SDS011;8017;50.812;4.934;2023-05-16T06:37:05;14.37;;;2.83;;
15833;SDS011;8017;50.812;4.934;2023-05-16T06:40:07;13.17;;;2.67;;
15833;SDS011;8017;50.812;4.934;2023-05-16T06:43:09;9.33;;;2.50;;
15833;SDS011;8017;50.812;4.934;2023-05-16T06:46:13;10.03;;;3.10;;
15833;SDS011;8017;50.812;4.934;2023-05-16T06:49:15;12.97;;;2.50;;
15833;SDS011;8017;50.812;4.934;2023-05-16T06:52:17;8.97;;;2.90;;
15833;SDS011;8017;50.812;4.934;2023-05-16T06:55:19;13.43;;;3.23;;
15833;SDS011;8017;50.812;4.934;2023-05-16T06:58:21;8.17;;;2.30;;
15833;SDS011;8017;50.812;4.934;2023-05-16T07:01:24;11.13;;;2.70;;
15833;SDS011;8017;50.812;4.934;2023-05-16T07:04:26;11.27;;;2.97;;
15833;SDS011;8017;50.812;4.934;2023-05-16T07:07:28;9.87;;;2.50;;
15833;SDS011;8017;50.812;4.934;2023-05-16T07:10:30;10.37;;;2.70;;
15833;SDS011;8017;50.812;4.934;2023-05-16T07:13:32;9.17;;;2.63;;
15833;SDS011;8017;50.812;4.934;2023-05-16T07:16:35;13.07;;;2.67;;
15833;SDS011;8017;50.812;4.934;2023-05-16T07:19:37;8.10;;;1.90;;
15833;SDS011;8017;50.812;4.934;2023-05-16T07:22:39;8.30;;;2.03;;
15833;SDS011;8017;50.812;4.934;2023-05-16T07:25:41;10.67;;;3.00;;
15833;SDS011;8017;50.812;4.934;2023-05-16T07:28:43;6.77;;;2.37;;
15833;SDS011;8017;50.812;4.934;2023-05-16T07:31:46;8.33;;;2.80;;
15833;SDS011;8017;50.812;4.934;2023-05-16T07:34:48;9.53;;;2.37;;
15833;SDS011;8017;50.812;4.934;2023-05-16T07:37:51;7.50;;;2.30;;
15833;SDS011;8017;50.812;4.934;2023-05-16T07:40:53;11.07;;;2.10;;
15833;SDS011;8017;50.812;4.934;2023-05-16T07:43:55;8.30;;;2.27;;
15833;SDS011;8017;50.812;4.934;2023-05-16T07:46:58;13.70;;;2.00;;
15833;SDS011;8017;50.812;4.934;2023-05-16T07:50:00;8.87;;;2.30;;
15833;SDS011;8017;50.812;4.934;2023-05-16T07:53:02;7.97;;;1.87;;
15833;SDS011;8017;50.812;4.934;2023-05-16T07:56:05;11.17;;;2.07;;
15833;SDS011;8017;50.812;4.934;2023-05-16T07:59:07;7.40;;;1.73;;
15833;SDS011;8017;50.812;4.934;2023-05-16T08:02:11;5.80;;;1.80;;
15833;SDS011;8017;50.812;4.934;2023-05-16T08:05:13;7.57;;;1.90;;
15833;SDS011;8017;50.812;4.934;2023-05-16T08:08:15;6.47;;;2.00;;
15833;SDS011;8017;50.812;4.934;2023-05-16T08:11:17;9.10;;;1.73;;
15833;SDS011;8017;50.812;4.934;2023-05-16T08:14:21;11.83;;;1.93;;
15833;SDS011;8017;50.812;4.934;2023-05-16T08:17:25;10.47;;;2.00;;
15833;SDS011;8017;50.812;4.934;2023-05-16T08:20:27;8.47;;;1.80;;
15833;SDS011;8017;50.812;4.934;2023-05-16T08:23:29;5.73;;;2.20;;
15833;SDS011;8017;50.812;4.934;2023-05-16T08:26:31;7.27;;;2.20;;
15833;SDS011;8017;50.812;4.934;2023-05-16T08:29:33;7.00;;;2.40;;
15833;SDS011;8017;50.812;4.934;2023-05-16T08:32:36;9.17;;;2.20;;
15833;SDS011;8017;50.812;4.934;2023-05-16T08:35:41;7.33;;;1.60;;
15833;SDS011;8017;50.812;4.934;2023-05-16T08:38:43;6.97;;;1.80;;
15833;SDS011;8017;50.812;4.934;2023-05-16T08:41:45;8.13;;;1.97;;
15833;SDS011;8017;50.812;4.934;2023-05-16T08:44:47;6.67;;;2.00;;
15833;SDS011;8017;50.812;4.934;2023-05-16T08:47:50;7.23;;;2.00;;
15833;SDS011;8017;50.812;4.934;2023-05-16T08:50:55;9.40;;;2.07;;
15833;SDS011;8017;50.812;4.934;2023-05-16T08:53:58;10.93;;;2.30;;
15833;SDS011;8017;50.812;4.934;2023-05-16T08:57:04;6.27;;;2.00;;
15833;SDS011;8017;50.812;4.934;2023-05-16T09:00:07;9.60;;;2.10;;
15833;SDS011;8017;50.812;4.934;2023-05-16T09:03:13;4.77;;;1.60;;
15833;SDS011;8017;50.812;4.934;2023-05-16T09:06:15;7.53;;;2.30;;
15833;SDS011;8017;50.812;4.934;2023-05-16T09:09:17;6.10;;;2.10;;
15833;SDS011;8017;50.812;4.934;2023-05-16T09:12:19;5.83;;;2.20;;
15833;SDS011;8017;50.812;4.934;2023-05-16T09:15:21;5.77;;;1.57;;
15833;SDS011;8017;50.812;4.934;2023-05-16T09:18:25;6.83;;;2.00;;
15833;SDS011;8017;50.812;4.934;2023-05-16T09:21:27;6.07;;;1.77;;
15833;SDS011;8017;50.812;4.934;2023-05-16T09:24:30;6.23;;;1.60;;
15833;SDS011;8017;50.812;4.934;2023-05-16T09:27:33;5.43;;;1.80;;
15833;SDS011;8017;50.812;4.934;2023-05-16T09:30:35;5.60;;;2.00;;
15833;SDS011;8017;50.812;4.934;2023-05-16T09:33:40;9.40;;;1.57;;
15833;SDS011;8017;50.812;4.934;2023-05-16T09:36:42;7.67;;;1.90;;
15833;SDS011;8017;50.812;4.934;2023-05-16T09:39:45;9.93;;;1.67;;
15833;SDS011;8017;50.812;4.934;2023-05-16T09:42:48;5.63;;;1.83;;
15833;SDS011;8017;50.812;4.934;2023-05-16T09:46:03;7.13;;;2.13;;
15833;SDS011;8017;50.812;4.934;2023-05-16T09:49:06;5.90;;;1.70;;
15833;SDS011;8017;50.812;4.934;2023-05-16T09:52:12;7.40;;;1.80;;
15833;SDS011;8017;50.812;4.934;2023-05-16T09:55:14;5.87;;;1.70;;
15833;SDS011;8017;50.812;4.934;2023-05-16T09:58:17;6.53;;;1.60;;
15833;SDS011;8017;50.812;4.934;2023-05-16T10:01:19;6.03;;;1.50;;
15833;SDS011;8017;50.812;4.934;2023-05-16T10:04:22;5.87;;;1.57;;
15833;SDS011;8017;50.812;4.934;2023-05-16T10:07:25;5.70;;;1.57;;
15833;SDS011;8017;50.812;4.934;2023-05-16T10:10:27;6.83;;;1.70;;
15833;SDS011;8017;50.812;4.934;2023-05-16T10:13:30;6.40;;;1.77;;
15833;SDS011;8017;50.812;4.934;2023-05-16T10:16:33;5.23;;;1.40;;
15833;SDS011;8017;50.812;4.934;2023-05-16T10:19:38;5.73;;;1.63;;
15833;SDS011;8017;50.812;4.934;2023-05-16T10:22:41;5.90;;;1.70;;
15833;SDS011;8017;50.812;4.934;2023-05-16T10:25:45;6.13;;;1.77;;
15833;SDS011;8017;50.812;4.934;2023-05-16T10:28:47;3.47;;;1.50;;
15833;SDS011;8017;50.812;4.934;2023-05-16T10:31:50;5.67;;;1.70;;
15833;SDS011;8017;50.812;4.934;2023-05-16T10:34:54;6.53;;;1.43;;
15833;SDS011;8017;50.812;4.934;2023-05-16T10:37:57;5.07;;;1.40;;
15833;SDS011;8017;50.812;4.934;2023-05-16T10:41:00;7.60;;;1.40;;
15833;SDS011;8017;50.812;4.934;2023-05-16T10:44:03;4.47;;;1.70;;
15833;SDS011;8017;50.812;4.934;2023-05-16T10:47:15;4.70;;;1.23;;
15833;SDS011;8017;50.812;4.934;2023-05-16T10:50:33;3.63;;;1.37;;
15833;SDS011;8017;50.812;4.934;2023-05-16T10:53:37;4.73;;;1.40;;
15833;SDS011;8017;50.812;4.934;2023-05-16T10:56:39;3.60;;;1.53;;
15833;SDS011;8017;50.812;4.934;2023-05-16T10:59:42;6.03;;;1.83;;
15833;SDS011;8017;50.812;4.934;2023-05-16T11:02:45;4.83;;;1.20;;
15833;SDS011;8017;50.812;4.934;2023-05-16T11:05:50;7.00;;;1.50;;
15833;SDS011;8017;50.812;4.934;2023-05-16T11:09:06;4.37;;;1.17;;
15833;SDS011;8017;50.812;4.934;2023-05-16T11:12:19;5.57;;;1.70;;
15833;SDS011;8017;50.812;4.934;2023-05-16T11:15:24;4.63;;;1.57;;
15833;SDS011;8017;50.812;4.934;2023-05-16T11:18:31;5.80;;;1.20;;
15833;SDS011;8017;50.812;4.934;2023-05-16T11:25:10;4.77;;;1.20;;
15833;SDS011;8017;50.812;4.934;2023-05-16T11:28:13;3.80;;;1.10;;
15833;SDS011;8017;50.812;4.934;2023-05-16T11:31:15;2.90;;;1.33;;
15833;SDS011;8017;50.812;4.934;2023-05-16T11:34:18;4.27;;;1.20;;
15833;SDS011;8017;50.812;4.934;2023-05-16T11:37:21;6.17;;;1.30;;
15833;SDS011;8017;50.812;4.934;2023-05-16T11:40:25;3.77;;;1.00;;
15833;SDS011;8017;50.812;4.934;2023-05-16T11:43:27;4.20;;;1.27;;
15833;SDS011;8017;50.812;4.934;2023-05-16T11:46:29;3.53;;;1.27;;
15833;SDS011;8017;50.812;4.934;2023-05-16T11:49:31;5.53;;;1.60;;
15833;SDS011;8017;50.812;4.934;2023-05-16T11:52:34;3.63;;;1.20;;
15833;SDS011;8017;50.812;4.934;2023-05-16T11:55:38;3.87;;;1.40;;
15833;SDS011;8017;50.812;4.934;2023-05-16T11:58:42;4.90;;;1.43;;
15833;SDS011;8017;50.812;4.934;2023-05-16T12:01:45;4.73;;;1.50;;
15833;SDS011;8017;50.812;4.934;2023-05-16T12:04:48;3.90;;;1.30;;
15833;SDS011;8017;50.812;4.934;2023-05-16T12:07:50;5.63;;;1.50;;
15833;SDS011;8017;50.812;4.934;2023-05-16T12:10:55;5.30;;;1.40;;
15833;SDS011;8017;50.812;4.934;2023-05-16T12:13:57;6.47;;;1.60;;
15833;SDS011;8017;50.812;4.934;2023-05-16T12:17:00;4.47;;;1.40;;
15833;SDS011;8017;50.812;4.934;2023-05-16T12:20:04;5.10;;;1.20;;
15833;SDS011;8017;50.812;4.934;2023-05-16T12:23:10;8.50;;;1.43;;
15833;SDS011;8017;50.812;4.934;2023-05-16T12:26:14;3.10;;;1.50;;
15833;SDS011;8017;50.812;4.934;2023-05-16T12:29:23;5.00;;;1.83;;
15833;SDS011;8017;50.812;4.934;2023-05-16T12:32:25;4.07;;;1.73;;
15833;SDS011;8017;50.812;4.934;2023-05-16T12:35:28;3.70;;;1.50;;
15833;SDS011;8017;50.812;4.934;2023-05-16T12:38:32;5.03;;;1.53;;
15833;SDS011;8017;50.812;4.934;2023-05-16T12:41:38;4.93;;;1.70;;
15833;SDS011;8017;50.812;4.934;2023-05-16T12:44:44;4.73;;;1.60;;
15833;SDS011;8017;50.812;4.934;2023-05-16T12:47:46;5.03;;;1.57;;
15833;SDS011;8017;50.812;4.934;2023-05-16T12:50:48;4.77;;;1.63;;
15833;SDS011;8017;50.812;4.934;2023-05-16T12:53:50;3.83;;;1.37;;
15833;SDS011;8017;50.812;4.934;2023-05-16T12:56:54;5.20;;;1.97;;
15833;SDS011;8017;50.812;4.934;2023-05-16T12:59:56;4.73;;;1.83;;
15833;SDS011;8017;50.812;4.934;2023-05-16T13:02:58;4.90;;;1.57;;
15833;SDS011;8017;50.812;4.934;2023-05-16T13:06:00;5.63;;;2.13;;
15833;SDS011;8017;50.812;4.934;2023-05-16T13:09:05;7.40;;;1.67;;
15833;SDS011;8017;50.812;4.934;2023-05-16T13:12:08;5.37;;;2.03;;
15833;SDS011;8017;50.812;4.934;2023-05-16T13:15:10;5.27;;;1.50;;
15833;SDS011;8017;50.812;4.934;2023-05-16T13:18:13;2.43;;;1.27;;
15833;SDS011;8017;50.812;4.934;2023-05-16T13:21:15;3.73;;;1.60;;
15833;SDS011;8017;50.812;4.934;2023-05-16T13:24:17;3.10;;;1.70;;
15833;SDS011;8017;50.812;4.934;2023-05-16T13:27:20;3.37;;;1.73;;
15833;SDS011;8017;50.812;4.934;2023-05-16T13:30:23;5.33;;;1.60;;
15833;SDS011;8017;50.812;4.934;2023-05-16T13:33:25;3.40;;;1.17;;
15833;SDS011;8017;50.812;4.934;2023-05-16T13:36:27;3.53;;;1.50;;
15833;SDS011;8017;50.812;4.934;2023-05-16T13:39:30;5.93;;;1.60;;
15833;SDS011;8017;50.812;4.934;2023-05-16T13:42:33;5.43;;;1.67;;
15833;SDS011;8017;50.812;4.934;2023-05-16T13:45:36;4.40;;;1.20;;
15833;SDS011;8017;50.812;4.934;2023-05-16T13:48:38;3.93;;;1.27;;
15833;SDS011;8017;50.812;4.934;2023-05-16T13:51:41;3.13;;;1.40;;
15833;SDS011;8017;50.812;4.934;2023-05-16T13:54:43;3.30;;;1.40;;
15833;SDS011;8017;50.812;4.934;2023-05-16T13:57:47;3.37;;;1.57;;
15833;SDS011;8017;50.812;4.934;2023-05-16T14:00:49;9.73;;;2.10;;
15833;SDS011;8017;50.812;4.934;2023-05-16T14:03:51;4.10;;;1.70;;
15833;SDS011;8017;50.812;4.934;2023-05-16T14:06:53;3.10;;;1.33;;
15833;SDS011;8017;50.812;4.934;2023-05-16T14:09:55;5.50;;;1.60;;
15833;SDS011;8017;50.812;4.934;2023-05-16T14:12:59;3.93;;;1.97;;
15833;SDS011;8017;50.812;4.934;2023-05-16T14:16:01;5.07;;;1.67;;
15833;SDS011;8017;50.812;4.934;2023-05-16T14:19:03;4.73;;;1.53;;
15833;SDS011;8017;50.812;4.934;2023-05-16T14:22:05;5.13;;;1.57;;
15833;SDS011;8017;50.812;4.934;2023-05-16T14:25:07;3.43;;;1.60;;
15833;SDS011;8017;50.812;4.934;2023-05-16T14:28:11;3.43;;;1.40;;
15833;SDS011;8017;50.812;4.934;2023-05-16T14:31:13;6.33;;;1.80;;
15833;SDS011;8017;50.812;4.934;2023-05-16T14:34:15;4.73;;;1.50;;
15833;SDS011;8017;50.812;4.934;2023-05-16T14:37:17;4.70;;;1.70;;
15833;SDS011;8017;50.812;4.934;2023-05-16T14:40:20;4.83;;;1.87;;
15833;SDS011;8017;50.812;4.934;2023-05-16T14:43:23;5.30;;;2.20;;
15833;SDS011;8017;50.812;4.934;2023-05-16T14:46:26;6.27;;;1.67;;
15833;SDS011;8017;50.812;4.934;2023-05-16T14:49:28;6.13;;;1.97;;
15833;SDS011;8017;50.812;4.934;2023-05-16T14:52:30;6.17;;;1.90;;
15833;SDS011;8017;50.812;4.934;2023-05-16T14:55:32;7.10;;;2.00;;
15833;SDS011;8017;50.812;4.934;2023-05-16T14:58:35;4.10;;;1.67;;
15833;SDS011;8017;50.812;4.934;2023-05-16T15:01:37;4.20;;;1.80;;
15833;SDS011;8017;50.812;4.934;2023-05-16T15:04:40;6.37;;;1.67;;
15833;SDS011;8017;50.812;4.934;2023-05-16T15:07:42;4.83;;;1.67;;
15833;SDS011;8017;50.812;4.934;2023-05-16T15:10:44;4.00;;;1.53;;
15833;SDS011;8017;50.812;4.934;2023-05-16T15:13:47;5.50;;;1.30;;
15833;SDS011;8017;50.812;4.934;2023-05-16T15:16:49;5.07;;;1.73;;
15833;SDS011;8017;50.812;4.934;2023-05-16T15:19:51;5.80;;;1.67;;
15833;SDS011;8017;50.812;4.934;2023-05-16T15:22:54;5.53;;;1.40;;
15833;SDS011;8017;50.812;4.934;2023-05-16T15:25:56;4.87;;;1.53;;
15833;SDS011;8017;50.812;4.934;2023-05-16T15:29:00;3.63;;;1.60;;
15833;SDS011;8017;50.812;4.934;2023-05-16T15:32:02;4.53;;;1.10;;
15833;SDS011;8017;50.812;4.934;2023-05-16T15:35:06;4.77;;;1.43;;
15833;SDS011;8017;50.812;4.934;2023-05-16T15:38:08;4.70;;;1.60;;
